• Join FlightAware (Why Join?)
  • Login
  • US Flag 
05:59AM EDT


 

Airport Tracker/Info


-or-


 

Live Flight TrackerFlight Track Log ✈ TAM3764 ✈ 15-Sep-2013 ✈ SBLO / LDB - SBSP / CGH

Flight Track Log - Related Links

Times and Time Zones

All times are in EDT time to prevent confusion due to time zone crossing. See the TAM3764 flight status page for this flight to view local times or setup timezone preferences in your user account.

Time Position Orientation Groundspeed Altitude Reporting Facility
EDT Latitude Longitude Course Direction KTS MPH feet Rate Location/Type
07:47PM -23.4933 -48.9377 95° East  Level Estimated
07:48PM -23.4993 -48.8462 94° East  Level Estimated
07:49PM -23.5053 -48.7548 94° East  Level Estimated
07:50PM -23.5112 -48.6633 94° East  Level Estimated
07:51PM -23.5170 -48.5718 94° East  Level Estimated
07:52PM -23.5228 -48.4803 94° East  Level Estimated
07:53PM -23.5285 -48.3888 94° East  Level Estimated
07:54PM -23.5341 -48.2973 94° East  Level Estimated
07:55PM -23.5398 -48.2058 94° East  Level Estimated
07:56PM -23.5453 -48.1143 94° East  Level Estimated
07:57PM -23.5508 -48.0227 94° East  Level Estimated
07:58PM -23.5563 -47.9312 94° East  Level Estimated
07:59PM -23.5617 -47.8396 94° East  Level Estimated
08:00PM -23.5670 -47.7481 94° East  Level Estimated
08:01PM -23.5723 -47.6565 94° East  Level Estimated
08:02PM -23.5776 -47.5650 94° East  Level Estimated
08:03PM -23.5828 -47.4734 94° East  Level Estimated
08:04PM -23.5879 -47.3818 94° East  Level Estimated
08:05PM -23.5930 -47.2902 93° East  Level Estimated
08:06PM -23.5980 -47.1986 93° East  Level Estimated
08:07PM -23.6030 -47.1070 93° East  Level Estimated
08:08PM -23.6079 -47.0154 93° East  Level Estimated
08:09PM -23.6127 -46.9238 93° East  Level Estimated
08:10PM -23.6176 -46.8321 93° East  Level Estimated
08:11PM -23.6223 -46.7405 93° East  Level Estimated
08:12PM -23.6267 -46.6554 93° East  Level Estimated
08:13PM -23.6267 -46.6554 114° Southeast  Level Estimated
08:14PM -23.6267 -46.6554 114° Southeast  Level Estimated
08:15PM -23.6267 -46.6554 114° Southeast  Level Estimated
08:16PM -23.6267 -46.6554 114° Southeast  Level Estimated
08:17PM -23.6267 -46.6554 114° Southeast  Level Estimated
08:18PM -23.6267 -46.6554 114° Southeast  Level Estimated
08:19PM -23.6267 -46.6554 114° Southeast  Level Estimated
08:20PM -23.6267 -46.6554 114° Southeast  Level Estimated
08:21PM -23.6267 -46.6554 114° Southeast  Level Estimated
08:22PM -23.6267 -46.6554 114° Southeast  Level Estimated
08:23PM -23.6267 -46.6554 114° Southeast  Level Estimated
08:24PM -23.6267 -46.6554 114° Southeast  Level Estimated
08:25PM -23.6267 -46.6554 114° Southeast  Level Estimated
08:26PM -23.6267 -46.6554 114° Southeast  Level Estimated
08:27PM -23.6267 -46.6554 114° Southeast  Level Estimated
08:28PM -23.6267 -46.6554 114° Southeast  Level Estimated